Time;durP1;ratioP1;P1;durP2;ratioP2;P2;SDS_P1;SDS_P2;PMS_P1;PMS_P2;Temp;Humidity;BMP_temperature;BMP_pressure;BME280_temperature;BME280_humidity;BME280_pressure;Samples;Min_cycle;Max_cycle;Signal;HPM_P1;HPM_P2
2023/07/15 00:00:53;;;;;;;5.88;2.20;;;22.70;60.60;;;;;;5043571;28;20029;-68
2023/07/15 00:03:19;;;;;;;3.45;2.15;;;22.70;60.60;;;;;;5043967;28;20479;-68
2023/07/15 00:05:46;;;;;;;3.38;2.17;;;22.60;60.40;;;;;;5049353;28;20025;-69
2023/07/15 00:08:12;;;;;;;3.80;2.10;;;22.60;60.10;;;;;;5049480;28;20032;-69
2023/07/15 00:10:45;;;;;;;3.90;2.08;;;22.60;60.00;;;;;;5049540;28;20591;-70
2023/07/15 00:13:18;;;;;;;2.60;1.90;;;22.60;59.80;;;;;;5049255;28;20507;-69
2023/07/15 00:15:47;;;;;;;2.97;2.08;;;22.60;59.50;;;;;;5041470;28;20067;-70
2023/07/15 00:18:14;;;;;;;4.22;2.10;;;22.60;59.10;;;;;;5049549;28;20028;-68
2023/07/15 00:20:41;;;;;;;2.88;2.10;;;22.60;59.10;;;;;;5043742;28;20033;-69
2023/07/15 00:23:19;;;;;;;3.47;2.30;;;22.60;58.90;;;;;;5049410;28;20029;-69
2023/07/15 00:25:45;;;;;;;2.72;2.00;;;22.60;58.70;;;;;;5064955;28;20028;-69
2023/07/15 00:28:11;;;;;;;3.28;2.20;;;22.60;58.70;;;;;;5049228;28;20040;-69
2023/07/15 00:30:37;;;;;;;3.03;1.92;;;22.60;58.50;;;;;;5048988;28;20029;-69
2023/07/15 00:33:03;;;;;;;4.13;1.98;;;22.70;58.40;;;;;;5047657;28;20937;-69
2023/07/15 00:35:29;;;;;;;3.88;2.00;;;22.70;58.20;;;;;;5044673;28;20555;-69
2023/07/15 00:37:59;;;;;;;3.92;2.03;;;22.70;58.00;;;;;;5049346;28;20035;-69
2023/07/15 00:40:26;;;;;;;5.45;2.10;;;22.70;57.90;;;;;;5029740;28;20040;-69
2023/07/15 00:43:30;;;;;;;3.70;2.15;;;22.70;57.80;;;;;;5048163;28;20140;-69
2023/07/15 00:46:17;;;;;;;3.65;2.08;;;22.70;57.70;;;;;;5046934;28;20036;-69
2023/07/15 00:48:58;;;;;;;3.67;2.08;;;22.60;57.50;;;;;;5039149;28;20396;-68
2023/07/15 00:51:29;;;;;;;3.33;1.80;;;22.60;57.50;;;;;;5042559;28;20082;-69
2023/07/15 00:53:55;;;;;;;2.72;1.75;;;22.70;57.60;;;;;;5048703;28;20108;-68
2023/07/15 00:56:22;;;;;;;2.63;1.85;;;22.60;57.40;;;;;;5031602;28;20115;-69
2023/07/15 00:58:50;;;;;;;2.67;1.85;;;22.60;57.20;;;;;;5048758;28;20075;-68
2023/07/15 01:01:15;;;;;;;4.05;1.75;;;22.60;57.20;;;;;;5031197;28;20079;-68
2023/07/15 01:03:43;;;;;;;2.67;1.52;;;22.60;56.90;;;;;;5049253;28;20057;-68
2023/07/15 01:06:09;;;;;;;3.40;1.80;;;22.70;57.00;;;;;;5049236;28;20122;-68
2023/07/15 01:08:35;;;;;;;2.35;1.60;;;22.80;56.90;;;;;;5049003;28;20468;-68
2023/07/15 01:11:00;;;;;;;4.72;1.98;;;22.80;56.70;;;;;;5048343;28;20025;-68
2023/07/15 01:13:26;;;;;;;3.40;1.85;;;22.80;56.20;;;;;;5048643;28;20045;-68
2023/07/15 01:15:52;;;;;;;5.07;1.90;;;22.80;56.10;;;;;;5048868;28;20025;-68
2023/07/15 01:18:17;;;;;;;5.13;2.85;;;22.80;56.20;;;;;;5064192;28;20033;-68
2023/07/15 01:20:43;;;;;;;3.20;1.98;;;22.90;56.20;;;;;;5048890;28;20029;-69
2023/07/15 01:23:08;;;;;;;5.13;1.92;;;22.90;56.00;;;;;;5049398;28;20025;-69
2023/07/15 01:25:34;;;;;;;4.10;1.98;;;23.00;55.90;;;;;;5052028;28;20034;-69
2023/07/15 01:27:59;;;;;;;2.90;1.50;;;23.00;55.80;;;;;;5052289;28;20546;-69
2023/07/15 01:30:25;;;;;;;2.55;1.77;;;23.10;55.70;;;;;;5052469;28;20037;-69
2023/07/15 01:32:51;;;;;;;3.28;1.70;;;23.10;55.40;;;;;;5052530;28;20032;-69
2023/07/15 01:35:16;;;;;;;3.17;1.85;;;23.20;55.40;;;;;;5052769;28;20025;-69
2023/07/15 01:37:42;;;;;;;4.70;1.80;;;23.10;55.00;;;;;;5052258;28;20024;-69
2023/07/15 01:40:09;;;;;;;3.50;1.50;;;23.20;55.00;;;;;;5052372;28;20029;-69
2023/07/15 01:42:35;;;;;;;2.38;1.90;;;23.20;54.90;;;;;;5051833;28;20450;-69
2023/07/15 01:45:03;;;;;;;3.83;1.75;;;23.30;54.50;;;;;;5051970;28;20108;-69
2023/07/15 01:47:29;;;;;;;2.28;1.67;;;23.30;54.30;;;;;;5051354;28;20123;-69
2023/07/15 01:49:54;;;;;;;1.90;1.50;;;23.30;54.40;;;;;;5052201;28;20428;-69
2023/07/15 01:52:20;;;;;;;2.70;1.90;;;23.40;54.40;;;;;;5033677;28;21274;-69
2023/07/15 01:54:45;;;;;;;3.78;1.60;;;23.40;54.20;;;;;;5051998;28;20032;-69
2023/07/15 01:57:11;;;;;;;3.55;1.80;;;23.40;54.20;;;;;;5051617;28;20021;-69
2023/07/15 01:59:36;;;;;;;4.22;1.80;;;23.40;53.70;;;;;;5052178;28;20025;-69
2023/07/15 02:02:02;;;;;;;3.28;1.50;;;23.40;53.80;;;;;;5051296;28;20032;-69
2023/07/15 02:04:28;;;;;;;4.18;1.77;;;23.40;53.70;;;;;;5051928;28;20032;-69
2023/07/15 02:06:53;;;;;;;2.00;1.40;;;23.40;53.60;;;;;;5052383;28;20282;-69
2023/07/15 02:09:19;;;;;;;3.28;1.40;;;23.40;53.80;;;;;;5052189;28;20392;-69
2023/07/15 02:11:44;;;;;;;2.83;1.73;;;23.40;53.90;;;;;;5051694;28;20379;-69
2023/07/15 02:14:10;;;;;;;2.38;1.75;;;23.40;53.60;;;;;;5051886;28;20075;-69
2023/07/15 02:16:36;;;;;;;2.53;1.70;;;23.40;53.70;;;;;;5051437;28;20024;-69
2023/07/15 02:19:02;;;;;;;2.53;1.50;;;23.30;53.50;;;;;;5051780;28;20047;-69
2023/07/15 02:21:27;;;;;;;2.45;1.85;;;23.30;53.60;;;;;;5051482;28;20039;-69
2023/07/15 02:23:53;;;;;;;3.00;1.63;;;23.30;53.60;;;;;;5051581;28;20079;-69
2023/07/15 02:26:19;;;;;;;2.85;1.67;;;23.30;53.50;;;;;;5051167;28;20510;-69
2023/07/15 02:28:45;;;;;;;4.07;1.52;;;23.30;53.50;;;;;;5051208;28;20017;-69
2023/07/15 02:31:11;;;;;;;4.20;1.60;;;23.30;53.60;;;;;;5051145;28;20120;-69
2023/07/15 02:33:38;;;;;;;1.40;1.25;;;23.30;53.70;;;;;;5042731;28;20383;-69
2023/07/15 02:36:04;;;;;;;2.63;1.80;;;23.30;53.70;;;;;;5047022;28;20053;-69
2023/07/15 02:38:31;;;;;;;2.28;1.60;;;23.30;53.80;;;;;;5049711;28;20021;-69
2023/07/15 02:40:56;;;;;;;3.92;1.70;;;23.20;53.80;;;;;;5051118;28;20029;-69
2023/07/15 02:43:22;;;;;;;3.22;1.63;;;23.20;53.80;;;;;;5050965;28;20099;-69
2023/07/15 02:45:51;;;;;;;1.65;1.35;;;23.20;53.80;;;;;;5051324;28;20029;-69
2023/07/15 02:48:19;;;;;;;3.13;1.40;;;23.20;53.90;;;;;;5050965;28;20028;-68
2023/07/15 02:50:45;;;;;;;2.92;1.55;;;23.10;54.00;;;;;;5050916;28;20072;-69
2023/07/15 02:53:11;;;;;;;2.58;1.50;;;23.10;54.50;;;;;;5051079;28;20048;-69
2023/07/15 02:55:36;;;;;;;2.88;1.60;;;23.10;53.90;;;;;;5050960;28;20033;-69
2023/07/15 02:58:02;;;;;;;2.65;1.60;;;23.00;54.00;;;;;;5050829;28;20037;-69
2023/07/15 03:00:27;;;;;;;4.13;1.70;;;23.00;54.10;;;;;;5033022;28;20423;-69
2023/07/15 03:02:53;;;;;;;2.50;1.60;;;23.00;54.10;;;;;;5050052;28;20107;-69
2023/07/15 03:05:19;;;;;;;1.88;1.30;;;22.90;54.20;;;;;;5050849;28;20021;-69
2023/07/15 03:07:46;;;;;;;2.60;1.60;;;22.90;54.40;;;;;;5050523;28;20352;-69
2023/07/15 03:10:12;;;;;;;7.50;4.32;;;22.90;54.40;;;;;;5051034;28;20036;-69
2023/07/15 03:12:39;;;;;;;3.63;2.30;;;22.90;54.50;;;;;;5050608;28;20025;-69
2023/07/15 03:15:05;;;;;;;4.30;2.00;;;22.80;54.60;;;;;;5032247;28;20492;-69
2023/07/15 03:17:35;;;;;;;2.92;2.00;;;22.70;54.70;;;;;;5050111;28;20487;-69
2023/07/15 03:20:26;;;;;;;3.78;1.88;;;22.70;54.70;;;;;;5050073;28;20484;-69
2023/07/15 03:22:52;;;;;;;3.10;1.60;;;22.70;54.90;;;;;;5049935;28;20032;-69
2023/07/15 03:25:19;;;;;;;1.80;1.42;;;22.70;55.00;;;;;;5049962;28;20100;-69
2023/07/15 03:27:45;;;;;;;1.83;1.35;;;22.60;55.10;;;;;;5049857;28;20060;-69
2023/07/15 03:30:11;;;;;;;2.30;1.65;;;22.60;55.10;;;;;;5050117;28;20056;-69
2023/07/15 03:32:38;;;;;;;4.22;1.60;;;22.60;55.20;;;;;;5050292;28;20116;-69
2023/07/15 03:35:04;;;;;;;4.65;1.70;;;22.50;55.20;;;;;;5049652;28;20697;-69
2023/07/15 03:37:32;;;;;;;2.45;1.60;;;22.50;56.00;;;;;;5050503;28;20040;-68
2023/07/15 03:39:57;;;;;;;3.15;1.70;;;22.40;55.40;;;;;;5049850;28;20033;-69
2023/07/15 03:42:25;;;;;;;2.13;1.60;;;22.50;55.60;;;;;;5050307;28;20025;-69
2023/07/15 03:44:50;;;;;;;2.13;1.58;;;22.40;55.60;;;;;;5049829;28;20025;-69
2023/07/15 03:47:16;;;;;;;2.67;1.60;;;22.40;55.80;;;;;;5049482;28;20025;-69
2023/07/15 03:49:43;;;;;;;2.15;1.60;;;22.40;55.80;;;;;;5049415;28;20096;-69
2023/07/15 03:52:09;;;;;;;3.78;1.75;;;22.40;55.90;;;;;;5049620;28;20078;-68
2023/07/15 03:54:35;;;;;;;2.17;1.40;;;22.30;56.00;;;;;;5049505;28;20025;-68
2023/07/15 03:57:00;;;;;;;2.83;1.33;;;22.30;56.10;;;;;;5049454;28;20045;-68
2023/07/15 03:59:26;;;;;;;5.20;1.67;;;22.30;56.10;;;;;;5049746;28;20032;-68
2023/07/15 04:01:51;;;;;;;2.53;1.50;;;22.30;56.20;;;;;;5049775;28;20484;-68
2023/07/15 04:04:17;;;;;;;3.50;1.55;;;22.30;56.30;;;;;;5048890;28;20033;-68
2023/07/15 04:06:43;;;;;;;2.15;1.30;;;22.20;56.40;;;;;;5048878;28;20400;-68
2023/07/15 04:09:12;;;;;;;2.05;1.65;;;22.20;56.40;;;;;;5048741;28;20017;-68
2023/07/15 04:11:39;;;;;;;3.28;1.73;;;22.20;56.50;;;;;;5049120;28;20028;-68
2023/07/15 04:14:05;;;;;;;3.65;1.83;;;22.20;56.60;;;;;;5048971;28;20502;-68
2023/07/15 04:16:31;;;;;;;2.03;1.52;;;22.10;56.60;;;;;;5049083;28;20096;-68
2023/07/15 04:18:56;;;;;;;4.35;1.70;;;22.20;56.70;;;;;;5065061;28;20116;-68
2023/07/15 04:21:22;;;;;;;3.80;2.00;;;22.20;56.70;;;;;;5049555;28;20484;-68
2023/07/15 04:23:48;;;;;;;1.73;1.40;;;22.20;56.80;;;;;;5049237;28;20036;-68
2023/07/15 04:26:20;;;;;;;4.45;2.10;;;22.20;56.90;;;;;;5049107;28;20036;-68
2023/07/15 04:28:45;;;;;;;3.55;1.70;;;22.10;57.00;;;;;;5048981;28;20353;-69
2023/07/15 04:31:11;;;;;;;2.13;1.50;;;22.10;57.10;;;;;;5049753;28;20033;-68
2023/07/15 04:33:36;;;;;;;2.42;1.70;;;22.10;57.10;;;;;;5049277;28;20480;-68
2023/07/15 04:36:02;;;;;;;2.70;1.50;;;22.10;57.20;;;;;;5049597;28;20468;-68
2023/07/15 04:38:28;;;;;;;3.25;1.35;;;22.20;57.30;;;;;;5049592;28;20029;-68
2023/07/15 04:40:54;;;;;;;2.55;1.60;;;22.20;57.30;;;;;;5048708;28;20057;-69
2023/07/15 04:43:22;;;;;;;3.17;1.60;;;22.20;57.30;;;;;;5049653;28;20072;-68
2023/07/15 04:45:48;;;;;;;2.63;1.50;;;22.20;57.90;;;;;;5048881;28;20104;-67
2023/07/15 04:48:14;;;;;;;3.03;1.60;;;22.20;57.40;;;;;;5049745;28;20037;-68
2023/07/15 04:50:40;;;;;;;2.00;1.33;;;22.20;57.50;;;;;;5048582;28;20017;-68
2023/07/15 04:53:06;;;;;;;2.30;1.70;;;22.30;57.60;;;;;;5049063;28;20020;-68
2023/07/15 04:55:32;;;;;;;3.60;1.80;;;22.30;57.70;;;;;;5049021;28;20384;-68
2023/07/15 04:57:57;;;;;;;4.22;1.58;;;22.30;57.80;;;;;;5049857;28;20549;-68
2023/07/15 05:00:23;;;;;;;2.78;1.50;;;22.30;57.80;;;;;;5052399;28;20032;-67
2023/07/15 05:02:49;;;;;;;1.60;1.42;;;22.40;57.80;;;;;;5052768;28;20025;-67
2023/07/15 05:05:15;;;;;;;2.25;1.58;;;22.50;57.90;;;;;;5052830;28;20029;-68
2023/07/15 05:07:41;;;;;;;3.47;1.80;;;23.10;57.40;;;;;;5052898;28;20069;-67
2023/07/15 05:10:07;;;;;;;3.03;1.85;;;23.60;56.20;;;;;;5052574;28;20037;-68
2023/07/15 05:12:33;;;;;;;3.80;2.03;;;24.20;55.00;;;;;;5052809;28;20013;-68
2023/07/15 05:14:58;;;;;;;4.00;2.08;;;24.70;53.90;;;;;;5050986;28;20052;-68
2023/07/15 05:17:25;;;;;;;2.75;1.70;;;25.30;52.80;;;;;;5051859;28;20033;-67
2023/07/15 05:19:51;;;;;;;2.92;1.90;;;25.60;51.70;;;;;;5051681;28;20018;-68
2023/07/15 05:22:18;;;;;;;3.03;1.70;;;26.00;51.10;;;;;;5052679;28;20043;-68
2023/07/15 05:24:44;;;;;;;2.63;1.63;;;26.50;50.50;;;;;;5052373;28;20017;-68
2023/07/15 05:27:09;;;;;;;5.25;2.05;;;26.80;49.60;;;;;;5052204;28;20373;-69
2023/07/15 05:29:35;;;;;;;2.15;1.75;;;26.90;49.40;;;;;;5052368;28;20036;-68
2023/07/15 05:32:01;;;;;;;3.55;1.70;;;27.10;49.20;;;;;;5052175;28;20025;-69
2023/07/15 05:34:26;;;;;;;2.08;1.60;;;27.20;49.00;;;;;;5052186;28;20391;-69
2023/07/15 05:36:52;;;;;;;4.30;1.70;;;27.50;49.00;;;;;;5052581;28;20508;-69
2023/07/15 05:39:19;;;;;;;2.97;1.67;;;27.60;48.80;;;;;;5052239;28;20029;-68
2023/07/15 05:41:44;;;;;;;3.03;1.40;;;27.70;48.60;;;;;;5052048;28;20027;-68
2023/07/15 05:44:10;;;;;;;2.25;1.50;;;27.80;48.60;;;;;;5052263;28;20029;-68
2023/07/15 05:46:37;;;;;;;4.55;1.40;;;28.00;48.70;;;;;;5052265;28;20028;-68
2023/07/15 05:49:04;;;;;;;3.95;1.40;;;28.20;48.60;;;;;;5052544;28;20021;-68
2023/07/15 05:51:30;;;;;;;2.78;1.52;;;28.40;48.40;;;;;;5051858;28;20021;-67
2023/07/15 05:53:56;;;;;;;4.28;1.70;;;28.50;48.20;;;;;;5052080;28;20091;-68
2023/07/15 05:56:21;;;;;;;1.77;1.60;;;28.80;48.10;;;;;;5051939;28;20033;-68
2023/07/15 05:58:47;;;;;;;2.42;1.65;;;28.70;48.20;;;;;;5052099;28;20483;-68
2023/07/15 06:01:13;;;;;;;3.15;1.38;;;28.80;48.30;;;;;;5051888;28;20063;-68
2023/07/15 06:03:38;;;;;;;2.58;1.60;;;29.10;48.20;;;;;;5051559;28;20017;-68
2023/07/15 06:06:04;;;;;;;1.88;1.50;;;29.30;48.20;;;;;;5051708;28;20385;-68
2023/07/15 06:08:31;;;;;;;2.45;1.40;;;29.40;47.80;;;;;;5048955;28;20029;-67
2023/07/15 06:10:57;;;;;;;2.78;1.70;;;29.50;48.00;;;;;;5051330;28;20024;-67
2023/07/15 06:13:23;;;;;;;4.13;1.55;;;29.50;48.00;;;;;;5051365;28;20025;-67
2023/07/15 06:15:52;;;;;;;3.20;1.63;;;29.40;48.30;;;;;;5051865;28;20074;-67
2023/07/15 06:18:18;;;;;;;3.30;1.50;;;29.10;48.60;;;;;;5051949;28;20036;-67
2023/07/15 06:20:47;;;;;;;2.75;1.45;;;29.00;49.10;;;;;;5050582;28;20032;-67
2023/07/15 06:23:13;;;;;;;2.88;1.80;;;28.90;49.20;;;;;;5051850;28;20407;-68
2023/07/15 06:25:39;;;;;;;2.33;1.70;;;28.60;49.70;;;;;;5051480;28;20369;-67
2023/07/15 06:28:06;;;;;;;3.45;1.80;;;28.50;50.10;;;;;;5051783;28;20047;-68
2023/07/15 06:30:31;;;;;;;2.72;1.60;;;28.40;50.20;;;;;;5051337;28;20036;-69
2023/07/15 06:32:57;;;;;;;2.55;1.73;;;28.40;51.10;;;;;;5052007;28;20028;-69
2023/07/15 06:35:23;;;;;;;4.65;1.80;;;28.20;50.60;;;;;;5051132;28;20048;-68
2023/07/15 06:37:49;;;;;;;2.22;1.63;;;28.10;50.70;;;;;;5051813;28;20098;-68
2023/07/15 06:40:16;;;;;;;3.00;1.90;;;27.90;51.20;;;;;;5051669;28;20032;-68
2023/07/15 06:42:46;;;;;;;2.65;1.63;;;27.50;51.60;;;;;;5050923;28;20485;-68
2023/07/15 06:45:12;;;;;;;2.70;1.83;;;27.50;52.20;;;;;;5056189;28;20085;-69
2023/07/15 06:47:38;;;;;;;3.22;1.83;;;27.30;52.20;;;;;;5042534;28;20035;-69
2023/07/15 06:50:04;;;;;;;3.53;1.70;;;27.20;52.60;;;;;;5051587;28;20163;-69
2023/07/15 06:52:30;;;;;;;1.83;1.40;;;27.20;52.90;;;;;;5051189;28;20024;-69
2023/07/15 06:54:56;;;;;;;4.05;1.88;;;27.30;53.00;;;;;;5051124;28;20031;-69
2023/07/15 06:57:21;;;;;;;2.20;1.50;;;27.30;52.90;;;;;;5051068;28;20028;-69
2023/07/15 06:59:47;;;;;;;4.32;1.70;;;27.40;53.20;;;;;;5051247;28;20098;-69
2023/07/15 07:02:13;;;;;;;2.30;1.42;;;27.60;53.20;;;;;;5051049;28;20021;-69
2023/07/15 07:04:39;;;;;;;2.78;1.58;;;27.70;53.20;;;;;;5051452;28;20021;-69
2023/07/15 07:07:05;;;;;;;4.10;1.90;;;27.80;53.30;;;;;;5051211;28;20021;-69
2023/07/15 07:09:30;;;;;;;2.90;1.52;;;27.90;53.40;;;;;;5050953;28;20104;-69
2023/07/15 07:11:56;;;;;;;2.63;1.73;;;27.80;53.60;;;;;;5051114;28;20040;-72
2023/07/15 07:14:22;;;;;;;1.83;1.38;;;27.80;54.10;;;;;;5051052;28;20028;-69
2023/07/15 07:16:47;;;;;;;2.45;1.55;;;27.80;54.40;;;;;;5049538;28;20028;-69
2023/07/15 07:19:13;;;;;;;2.78;1.92;;;27.90;54.50;;;;;;5050799;28;20025;-69
2023/07/15 07:21:39;;;;;;;2.40;1.45;;;27.80;54.70;;;;;;5049294;28;20490;-69
2023/07/15 07:24:05;;;;;;;3.35;1.27;;;27.90;55.00;;;;;;5049956;28;20155;-69
2023/07/15 07:26:30;;;;;;;2.25;1.40;;;28.00;55.10;;;;;;5048864;28;20075;-70
2023/07/15 07:28:56;;;;;;;2.70;1.55;;;28.10;55.10;;;;;;5049783;28;20442;-69
2023/07/15 07:31:22;;;;;;;1.55;1.38;;;28.10;55.20;;;;;;5053832;28;20025;-69
2023/07/15 07:33:47;;;;;;;3.70;1.40;;;28.10;55.40;;;;;;5036864;28;20025;-70
2023/07/15 07:36:13;;;;;;;3.03;1.70;;;28.10;55.50;;;;;;5057405;28;20089;-67
2023/07/15 07:38:38;;;;;;;2.80;1.60;;;28.30;55.50;;;;;;5057761;28;20100;-69
2023/07/15 07:41:11;;;;;;;2.50;1.77;;;28.40;55.40;;;;;;5050731;28;20380;-68
2023/07/15 07:43:38;;;;;;;2.15;1.50;;;28.40;55.00;;;;;;5050287;28;20023;-68
2023/07/15 07:46:06;;;;;;;3.60;1.80;;;28.20;55.30;;;;;;5062681;28;20136;-68
2023/07/15 07:48:32;;;;;;;4.22;1.65;;;28.20;55.40;;;;;;5052792;28;20510;-69
2023/07/15 07:50:59;;;;;;;1.52;1.20;;;28.10;55.80;;;;;;5049913;28;20104;-68
2023/07/15 07:53:25;;;;;;;2.60;1.30;;;28.20;55.70;;;;;;5051045;28;20025;-68
2023/07/15 07:55:52;;;;;;;2.85;1.50;;;28.20;55.10;;;;;;5035080;28;20021;-68
2023/07/15 07:58:18;;;;;;;2.88;1.60;;;28.20;54.80;;;;;;5065374;28;20035;-68
2023/07/15 08:00:44;;;;;;;1.50;1.20;;;28.10;54.30;;;;;;5056694;28;20029;-68
2023/07/15 08:03:10;;;;;;;2.05;1.40;;;28.20;54.50;;;;;;5051077;28;20031;-68
2023/07/15 08:05:43;;;;;;;2.35;1.40;;;28.40;54.10;;;;;;5047110;28;20045;-68
2023/07/15 08:08:11;;;;;;;2.83;1.42;;;28.50;54.00;;;;;;5047168;28;20036;-68
2023/07/15 08:10:37;;;;;;;2.25;1.50;;;28.30;53.80;;;;;;5043274;28;20028;-68
2023/07/15 08:13:03;;;;;;;2.92;1.42;;;28.10;53.90;;;;;;5050514;28;20399;-67
2023/07/15 08:15:29;;;;;;;2.45;1.30;;;28.10;54.30;;;;;;5047672;28;20037;-68
2023/07/15 08:17:55;;;;;;;2.15;1.30;;;28.20;54.40;;;;;;5046881;28;20025;-68
2023/07/15 08:20:21;;;;;;;3.78;1.38;;;28.30;54.20;;;;;;5047432;28;20048;-68
2023/07/15 08:22:46;;;;;;;2.05;1.48;;;28.40;54.00;;;;;;5049169;28;20064;-69
2023/07/15 08:25:12;;;;;;;2.42;1.42;;;28.50;54.00;;;;;;5040914;28;20085;-68
2023/07/15 08:27:38;;;;;;;3.42;1.90;;;28.60;54.00;;;;;;5046144;28;20049;-69
2023/07/15 08:30:04;;;;;;;3.75;1.35;;;28.60;53.80;;;;;;5048750;28;20043;-68
2023/07/15 08:32:30;;;;;;;3.28;1.45;;;28.40;54.00;;;;;;5044757;28;20022;-69
2023/07/15 08:35:00;;;;;;;2.85;1.40;;;28.30;54.30;;;;;;5045352;28;20041;-68
2023/07/15 08:37:27;;;;;;;3.08;1.40;;;28.10;54.50;;;;;;5044983;28;20028;-68
2023/07/15 08:39:52;;;;;;;1.98;1.00;;;28.10;54.90;;;;;;5047945;28;20036;-68
2023/07/15 08:42:22;;;;;;;1.77;1.00;;;27.90;55.30;;;;;;5045244;28;20436;-68
2023/07/15 08:44:51;;;;;;;3.72;1.00;;;27.80;55.70;;;;;;5050892;28;20032;-69
2023/07/15 08:47:22;;;;;;;1.88;1.00;;;27.60;56.20;;;;;;5048200;28;20086;-67
2023/07/15 08:49:48;;;;;;;1.85;1.15;;;27.50;56.60;;;;;;5050334;28;20392;-68
2023/07/15 08:52:25;;;;;;;1.55;1.10;;;27.50;56.80;;;;;;5046325;28;20020;-68
2023/07/15 08:54:52;;;;;;;2.85;0.90;;;27.50;56.80;;;;;;5049244;28;20094;-68
2023/07/15 08:57:19;;;;;;;3.30;1.10;;;27.60;56.90;;;;;;5046178;28;20056;-68
2023/07/15 08:59:47;;;;;;;1.30;0.80;;;27.60;57.00;;;;;;5053426;28;20029;-68
2023/07/15 09:02:12;;;;;;;2.10;1.00;;;27.80;56.90;;;;;;5051838;28;20025;-68
2023/07/15 09:04:39;;;;;;;2.65;1.20;;;27.90;56.70;;;;;;5047236;28;20026;-68
2023/07/15 09:07:05;;;;;;;2.25;1.30;;;28.00;56.50;;;;;;5044575;28;20492;-68
2023/07/15 09:09:35;;;;;;;3.53;1.10;;;28.00;56.70;;;;;;5052509;28;20021;-68
2023/07/15 09:12:03;;;;;;;1.15;1.05;;;28.00;56.80;;;;;;5047814;28;20024;-68
2023/07/15 09:14:29;;;;;;;4.10;1.30;;;27.90;56.70;;;;;;5049330;28;20021;-68
2023/07/15 09:16:56;;;;;;;2.17;1.10;;;27.90;56.60;;;;;;5046398;28;20021;-67
2023/07/15 09:19:23;;;;;;;2.53;1.20;;;27.90;56.60;;;;;;5048217;28;20103;-68
2023/07/15 09:21:53;;;;;;;2.55;1.17;;;27.90;56.40;;;;;;5046052;28;20021;-68
2023/07/15 09:24:19;;;;;;;2.33;1.30;;;27.80;56.30;;;;;;5030321;28;20068;-69
2023/07/15 09:26:52;;;;;;;1.65;0.95;;;27.80;56.10;;;;;;5034336;28;20025;-68
2023/07/15 09:29:22;;;;;;;2.38;1.13;;;27.70;56.30;;;;;;5047850;28;20491;-68
2023/07/15 09:31:48;;;;;;;2.22;1.08;;;27.50;56.00;;;;;;5046085;28;20021;-68
2023/07/15 09:34:14;;;;;;;2.53;1.20;;;27.40;56.60;;;;;;5031879;28;20101;-68
2023/07/15 09:36:39;;;;;;;1.73;1.10;;;27.40;56.70;;;;;;5051349;28;20093;-68
2023/07/15 09:39:17;;;;;;;1.40;1.00;;;27.30;57.50;;;;;;5050975;28;20028;-68
2023/07/15 09:41:43;;;;;;;2.28;1.20;;;27.20;56.80;;;;;;5046011;28;20120;-68
2023/07/15 09:44:10;;;;;;;2.17;1.23;;;27.10;57.10;;;;;;5064165;28;20107;-68
2023/07/15 09:46:35;;;;;;;3.05;1.13;;;27.10;57.50;;;;;;5046352;28;20021;-68
2023/07/15 09:49:01;;;;;;;1.65;1.10;;;26.80;57.70;;;;;;5041430;28;20024;-68
2023/07/15 09:51:27;;;;;;;1.88;1.10;;;26.70;58.30;;;;;;5052756;28;20065;-68
2023/07/15 09:53:54;;;;;;;3.03;1.20;;;26.70;58.50;;;;;;5058794;28;20056;-68
2023/07/15 09:56:34;;;;;;;1.75;1.00;;;26.70;58.60;;;;;;5056262;28;20724;-68
2023/07/15 09:59:12;;;;;;;1.60;1.10;;;26.80;58.60;;;;;;5051582;28;20025;-68
2023/07/15 10:01:44;;;;;;;2.38;1.40;;;26.80;58.80;;;;;;5052606;28;20491;-68
2023/07/15 10:04:13;;;;;;;1.63;1.20;;;26.90;58.60;;;;;;5054158;28;20497;-68
2023/07/15 10:06:39;;;;;;;3.58;1.30;;;27.00;58.30;;;;;;5051595;28;20029;-68
2023/07/15 10:09:07;;;;;;;2.92;1.40;;;27.10;58.30;;;;;;5051183;28;20044;-68
2023/07/15 10:11:33;;;;;;;1.90;1.40;;;27.20;58.10;;;;;;5052130;28;20029;-69
2023/07/15 10:14:00;;;;;;;5.57;1.50;;;27.30;57.90;;;;;;5051657;28;20116;-68
2023/07/15 10:16:26;;;;;;;2.25;1.17;;;27.20;57.80;;;;;;5051801;28;20036;-68
2023/07/15 10:18:55;;;;;;;3.30;1.30;;;27.20;58.00;;;;;;5055392;28;20024;-69
2023/07/15 10:21:21;;;;;;;1.58;1.20;;;27.00;58.30;;;;;;5055024;28;20032;-69
2023/07/15 10:23:47;;;;;;;2.28;1.15;;;26.80;58.70;;;;;;5052135;28;21115;-68
2023/07/15 10:26:19;;;;;;;4.97;1.60;;;26.80;59.00;;;;;;5051962;28;20033;-68
2023/07/15 10:28:52;;;;;;;3.53;1.73;;;26.60;58.70;;;;;;5032975;28;20060;-68
2023/07/15 10:31:23;;;;;;;3.15;1.40;;;26.60;58.50;;;;;;5051920;28;20041;-68
2023/07/15 10:33:56;;;;;;;;;;;26.60;58.30;;;;;;5048371;28;20059;-69
2023/07/15 10:36:42;;;;;;;2.33;1.80;;;26.50;57.60;;;;;;5051457;28;20004;-68
2023/07/15 10:39:18;;;;;;;5.15;1.77;;;26.40;57.20;;;;;;5052122;28;20454;-68
2023/07/15 10:41:53;;;;;;;4.25;1.95;;;26.30;57.50;;;;;;5046551;28;20116;-69
2023/07/15 10:44:21;;;;;;;2.42;1.60;;;26.20;57.80;;;;;;5049929;28;20383;-68
2023/07/15 10:46:52;;;;;;;2.10;1.50;;;26.10;58.30;;;;;;5049472;28;20014;-69
2023/07/15 10:49:18;;;;;;;2.55;1.50;;;26.00;58.60;;;;;;5042723;28;20025;-69
2023/07/15 10:51:46;;;;;;;4.47;1.50;;;26.00;58.60;;;;;;5049906;28;20075;-69
2023/07/15 10:54:11;;;;;;;3.42;1.60;;;26.00;58.90;;;;;;5046103;28;20028;-69
2023/07/15 10:56:38;;;;;;;2.97;1.70;;;26.00;59.20;;;;;;5048158;28;20029;-69
2023/07/15 10:59:03;;;;;;;3.38;1.60;;;25.90;59.50;;;;;;5046149;28;20375;-69
2023/07/15 11:01:30;;;;;;;3.35;1.52;;;25.90;59.80;;;;;;5046501;28;20117;-69
2023/07/15 11:04:03;;;;;;;3.42;1.40;;;25.90;60.00;;;;;;5047063;28;20021;-69
2023/07/15 11:06:29;;;;;;;2.17;1.40;;;25.80;61.00;;;;;;5051605;28;20387;-69
2023/07/15 11:08:55;;;;;;;4.35;1.40;;;25.80;61.60;;;;;;5053973;28;20025;-69
2023/07/15 11:11:23;;;;;;;2.92;1.70;;;25.70;62.00;;;;;;5049301;28;20040;-70
2023/07/15 11:13:49;;;;;;;5.85;1.80;;;25.80;62.20;;;;;;5050717;28;20025;-69
2023/07/15 11:16:14;;;;;;;4.53;1.52;;;25.80;62.10;;;;;;5048942;28;20431;-69
2023/07/15 11:18:40;;;;;;;4.15;1.50;;;25.90;62.30;;;;;;5035134;28;20073;-69
2023/07/15 11:21:06;;;;;;;2.88;1.40;;;25.90;62.40;;;;;;5046211;28;20036;-69
2023/07/15 11:23:32;;;;;;;3.17;1.60;;;25.90;62.30;;;;;;5049495;28;20142;-69
2023/07/15 11:26:07;;;;;;;2.60;1.58;;;25.90;61.70;;;;;;5051537;28;20368;-69
2023/07/15 11:28:33;;;;;;;3.60;1.75;;;25.90;61.00;;;;;;5052565;28;20690;-69
2023/07/15 11:30:59;;;;;;;3.28;1.40;;;25.90;60.50;;;;;;5051164;28;20029;-69
2023/07/15 11:33:24;;;;;;;1.77;1.40;;;26.00;60.50;;;;;;5052217;28;20033;-69
2023/07/15 11:35:50;;;;;;;2.40;1.38;;;26.20;59.80;;;;;;5049706;28;20020;-69
2023/07/15 11:38:27;;;;;;;2.65;1.40;;;26.20;59.30;;;;;;5053126;28;20096;-69
2023/07/15 11:40:58;;;;;;;3.85;1.40;;;26.10;58.70;;;;;;5052143;28;20032;-69
2023/07/15 11:43:25;;;;;;;1.58;1.40;;;26.10;58.50;;;;;;5050480;28;20035;-69
2023/07/15 11:45:59;;;;;;;3.30;1.85;;;26.00;58.70;;;;;;5048247;28;20009;-69
2023/07/15 11:48:31;;;;;;;2.55;1.30;;;26.00;58.30;;;;;;5031788;28;20559;-69
2023/07/15 11:51:04;;;;;;;1.67;1.38;;;26.00;58.00;;;;;;5050600;28;20035;-69
2023/07/15 11:53:31;;;;;;;1.48;1.33;;;26.20;58.10;;;;;;5047815;28;20025;-69
2023/07/15 11:55:57;;;;;;;3.53;1.50;;;26.20;57.60;;;;;;5048535;28;20036;-69
2023/07/15 11:58:40;;;;;;;3.15;1.40;;;26.20;57.60;;;;;;5049597;28;20040;-68
2023/07/15 12:01:06;;;;;;;3.55;1.70;;;26.20;57.80;;;;;;5029746;28;20025;-69
2023/07/15 12:03:32;;;;;;;1.95;1.20;;;26.20;57.50;;;;;;5050161;28;20032;-69
2023/07/15 12:05:58;;;;;;;2.67;1.85;;;26.20;57.80;;;;;;5049127;28;20037;-69
2023/07/15 12:08:23;;;;;;;1.88;1.17;;;26.40;57.20;;;;;;5042618;28;20029;-69
2023/07/15 12:10:50;;;;;;;2.50;1.60;;;26.50;57.20;;;;;;5045040;28;20048;-69
2023/07/15 12:13:16;;;;;;;2.40;1.67;;;26.70;56.80;;;;;;5042595;28;20017;-69
2023/07/15 12:15:42;;;;;;;2.78;1.50;;;26.80;56.50;;;;;;5044080;28;20051;-69
2023/07/15 12:18:07;;;;;;;1.70;1.50;;;26.90;56.10;;;;;;5046085;28;20029;-69
2023/07/15 12:20:33;;;;;;;2.17;1.40;;;26.90;55.90;;;;;;5042283;28;20028;-69
2023/07/15 12:22:59;;;;;;;2.10;1.40;;;26.90;55.70;;;;;;5045747;28;20403;-69
2023/07/15 12:25:25;;;;;;;2.45;1.20;;;27.00;55.50;;;;;;5045427;28;20078;-69
2023/07/15 12:27:51;;;;;;;1.77;1.30;;;27.00;55.30;;;;;;5043173;28;20028;-69
2023/07/15 12:30:17;;;;;;;1.33;1.23;;;27.00;55.50;;;;;;5046459;28;20029;-69
2023/07/15 12:32:42;;;;;;;2.22;1.50;;;27.00;54.70;;;;;;5043491;28;20399;-69
2023/07/15 12:35:08;;;;;;;2.25;1.55;;;27.10;54.50;;;;;;5045103;28;20068;-70
2023/07/15 12:37:35;;;;;;;2.97;1.48;;;27.20;54.50;;;;;;5046484;28;20095;-69
2023/07/15 12:40:03;;;;;;;3.00;1.38;;;27.40;54.00;;;;;;5042300;28;20116;-69
2023/07/15 12:42:29;;;;;;;3.17;1.30;;;27.40;53.80;;;;;;5045031;28;20119;-69
2023/07/15 12:44:54;;;;;;;2.17;1.50;;;27.40;53.50;;;;;;5043748;28;20029;-69
2023/07/15 12:47:20;;;;;;;3.30;1.70;;;27.50;54.00;;;;;;5044293;28;20099;-69